Time;durP1;ratioP1;P1;durP2;ratioP2;P2;SDS_P1;SDS_P2;PMS_P1;PMS_P2;Temp;Humidity;BMP_temperature;BMP_pressure;BME280_temperature;BME280_humidity;BME280_pressure;Samples;Min_cycle;Max_cycle;Signal;HPM_P1;HPM_P2
2021/11/28 00:02:07;;;;;;;55.10;40.83;;;0.40;99.90;;;;;;5018413;28;20017;-74
2021/11/28 00:04:32;;;;;;;43.85;37.08;;;0.40;99.90;;;;;;5011065;28;20022;-74
2021/11/28 00:07:05;;;;;;;50.63;38.90;;;0.40;99.90;;;;;;5022890;28;20080;-73
2021/11/28 00:09:43;;;;;;;45.60;34.60;;;0.50;99.90;;;;;;5010512;28;20484;-73
2021/11/28 00:14:44;;;;;;;38.75;32.30;;;0.60;99.90;;;;;;5010407;28;20014;-74
2021/11/28 00:17:12;;;;;;;40.97;32.35;;;0.60;99.90;;;;;;5015361;28;20464;-74
2021/11/28 00:19:39;;;;;;;40.88;32.80;;;0.50;99.90;;;;;;5018967;28;20026;-74
2021/11/28 00:22:05;;;;;;;40.55;33.03;;;0.50;99.90;;;;;;5028052;28;20101;-74
2021/11/28 00:24:30;;;;;;;43.72;34.13;;;0.40;99.90;;;;;;5020548;28;20026;-72
2021/11/28 00:26:56;;;;;;;37.70;30.65;;;0.40;99.90;;;;;;5018497;28;20040;-72
2021/11/28 00:29:22;;;;;;;31.73;27.65;;;0.50;99.90;;;;;;5020995;28;20023;-72
2021/11/28 00:31:47;;;;;;;33.90;28.88;;;0.60;99.90;;;;;;5029925;28;20022;-72
2021/11/28 00:34:13;;;;;;;32.10;27.38;;;0.60;99.90;;;;;;5012509;28;20026;-72
2021/11/28 00:36:39;;;;;;;28.05;25.02;;;0.60;99.90;;;;;;5025572;28;20036;-72
2021/11/28 00:39:04;;;;;;;38.13;30.65;;;0.50;99.90;;;;;;5014618;28;20387;-72
2021/11/28 00:41:30;;;;;;;35.08;28.20;;;0.40;99.90;;;;;;5016927;28;20141;-74
2021/11/28 00:43:55;;;;;;;33.63;28.77;;;0.40;99.90;;;;;;5026337;28;20537;-74
2021/11/28 00:46:21;;;;;;;37.88;31.08;;;0.40;99.90;;;;;;5011306;28;20481;-72
2021/11/28 00:48:46;;;;;;;39.70;31.02;;;0.40;99.90;;;;;;5023143;28;20029;-73
2021/11/28 00:53:54;;;;;;;38.20;29.45;;;0.40;99.90;;;;;;5026275;28;20475;-74
2021/11/28 00:56:19;;;;;;;34.42;28.05;;;0.50;99.90;;;;;;5021000;28;20014;-72
2021/11/28 00:58:46;;;;;;;44.70;32.38;;;0.50;99.90;;;;;;5040433;28;20112;-73
2021/11/28 01:01:12;;;;;;;38.65;29.58;;;0.50;99.90;;;;;;5030126;28;20029;-73
2021/11/28 01:03:38;;;;;;;32.50;26.00;;;0.50;99.90;;;;;;5008532;28;20033;-73
2021/11/28 01:06:03;;;;;;;35.72;25.70;;;0.60;99.90;;;;;;5021586;28;20426;-74
2021/11/28 01:08:29;;;;;;;33.25;25.85;;;0.60;99.90;;;;;;5022341;28;20112;-73
2021/11/28 01:10:55;;;;;;;26.75;23.10;;;0.60;99.90;;;;;;5019444;28;20088;-74
2021/11/28 01:13:20;;;;;;;28.10;23.83;;;0.70;99.90;;;;;;5023858;28;20041;-73
2021/11/28 01:15:46;;;;;;;24.95;22.13;;;0.80;99.90;;;;;;5029670;28;20022;-73
2021/11/28 01:18:12;;;;;;;26.90;23.65;;;0.70;99.90;;;;;;5026263;28;20476;-73
2021/11/28 01:20:37;;;;;;;30.30;22.73;;;0.80;99.90;;;;;;5012734;28;20038;-74
2021/11/28 01:23:03;;;;;;;26.63;22.73;;;0.70;99.90;;;;;;5025204;28;20025;-73
2021/11/28 01:25:29;;;;;;;27.55;22.40;;;0.70;99.90;;;;;;5027941;28;20033;-73
2021/11/28 01:27:54;;;;;;;23.98;20.33;;;0.70;99.90;;;;;;5016223;28;20025;-73
2021/11/28 01:30:20;;;;;;;23.95;20.30;;;0.80;99.90;;;;;;5013077;28;20025;-73
2021/11/28 01:32:47;;;;;;;24.00;17.88;;;0.80;99.90;;;;;;5008398;28;20522;-73
2021/11/28 01:35:15;;;;;;;20.75;18.05;;;0.80;99.90;;;;;;5013599;28;20476;-74
2021/11/28 01:37:41;;;;;;;19.90;17.73;;;0.80;99.90;;;;;;5007871;28;20045;-74
2021/11/28 01:40:09;;;;;;;24.90;21.08;;;0.80;99.90;;;;;;5016067;28;20021;-74
2021/11/28 01:42:38;;;;;;;27.92;19.80;;;0.70;99.90;;;;;;5017504;28;20100;-74
2021/11/28 01:45:05;;;;;;;21.25;18.70;;;0.70;99.90;;;;;;5021550;28;20364;-74
2021/11/28 01:47:31;;;;;;;21.90;19.17;;;0.70;99.90;;;;;;5028281;28;20023;-72
2021/11/28 01:49:58;;;;;;;24.65;19.50;;;0.60;99.90;;;;;;5016378;28;20014;-73
2021/11/28 01:52:24;;;;;;;24.58;21.13;;;0.50;99.90;;;;;;5024627;28;20035;-73
2021/11/28 01:54:50;;;;;;;24.90;20.58;;;0.40;99.90;;;;;;5010897;28;20476;-73
2021/11/28 01:57:16;;;;;;;23.25;20.02;;;0.30;99.90;;;;;;5024180;28;20037;-73
2021/11/28 01:59:42;;;;;;;28.48;23.98;;;0.30;99.90;;;;;;5023663;28;20080;-74
2021/11/28 02:02:08;;;;;;;29.65;23.40;;;0.30;99.90;;;;;;5015789;28;20429;-74
2021/11/28 02:04:34;;;;;;;33.05;23.88;;;0.10;99.90;;;;;;5020505;28;20061;-72
2021/11/28 02:07:00;;;;;;;36.85;26.25;;;0.00;99.90;;;;;;5015340;28;20045;-73
2021/11/28 02:09:25;;;;;;;34.47;26.38;;;0.00;99.90;;;;;;5018059;28;20063;-72
2021/11/28 02:11:51;;;;;;;28.70;23.38;;;0.00;99.90;;;;;;5038623;28;20069;-72
2021/11/28 02:14:16;;;;;;;28.38;23.40;;;0.00;99.90;;;;;;5015299;28;20516;-74
2021/11/28 02:16:42;;;;;;;29.45;23.85;;;-0.10;99.90;;;;;;5010026;28;20072;-74
2021/11/28 02:19:08;;;;;;;27.70;22.80;;;-0.20;99.90;;;;;;5010716;28;20108;-73
2021/11/28 02:21:33;;;;;;;31.63;23.75;;;-0.20;99.90;;;;;;5018930;28;20392;-74
2021/11/28 02:23:59;;;;;;;25.70;22.30;;;-0.30;99.90;;;;;;5025570;28;20022;-73
2021/11/28 02:26:25;;;;;;;25.63;21.40;;;-0.20;99.90;;;;;;5023244;28;20488;-73
2021/11/28 02:28:51;;;;;;;31.10;24.02;;;-0.20;99.90;;;;;;5000781;28;20026;-74
2021/11/28 02:31:17;;;;;;;29.98;24.08;;;-0.10;99.90;;;;;;5021778;28;20025;-75
2021/11/28 02:33:42;;;;;;;27.70;22.60;;;-0.10;99.90;;;;;;5035954;28;20053;-73
2021/11/28 02:36:09;;;;;;;31.90;22.88;;;-0.10;99.90;;;;;;4997168;28;20081;-73
2021/11/28 02:38:35;;;;;;;26.15;23.30;;;-0.10;99.90;;;;;;5005637;28;20032;-72
2021/11/28 02:41:02;;;;;;;26.67;21.55;;;-0.10;99.90;;;;;;4999815;28;20133;-74
2021/11/28 02:43:30;;;;;;;29.45;23.38;;;-0.10;99.90;;;;;;4998686;28;20420;-73
2021/11/28 02:45:56;;;;;;;29.65;22.88;;;-0.20;99.90;;;;;;5003151;28;20049;-74
2021/11/28 02:48:21;;;;;;;29.40;22.83;;;-0.20;99.90;;;;;;5005616;28;20026;-74
2021/11/28 02:50:48;;;;;;;25.55;20.92;;;-0.20;99.90;;;;;;4998280;28;20033;-74
2021/11/28 02:53:15;;;;;;;29.13;21.60;;;-0.20;99.90;;;;;;5021480;28;20036;-74
2021/11/28 02:55:47;;;;;;;26.42;21.02;;;-0.20;99.90;;;;;;5011515;28;20077;-74
2021/11/28 02:58:15;;;;;;;33.53;25.15;;;-0.40;99.90;;;;;;4997508;28;20050;-73
2021/11/28 03:00:46;;;;;;;32.05;23.13;;;-0.50;99.90;;;;;;5004895;28;20126;-73
2021/11/28 03:03:12;;;;;;;32.22;24.42;;;-0.50;99.90;;;;;;5009133;28;20037;-73
2021/11/28 03:05:38;;;;;;;30.88;24.48;;;-0.60;99.90;;;;;;4999702;28;20030;-73
2021/11/28 03:08:04;;;;;;;39.95;27.08;;;-0.60;99.90;;;;;;4999741;28;20030;-75
2021/11/28 03:10:54;;;;;;;44.38;29.67;;;-0.60;99.90;;;;;;5005053;28;20027;-73
2021/11/28 03:13:26;;;;;;;29.67;23.92;;;-0.60;99.90;;;;;;5008550;28;20038;-75
2021/11/28 03:15:56;;;;;;;28.92;23.30;;;-0.50;99.90;;;;;;5008574;28;20022;-74
2021/11/28 03:18:25;;;;;;;32.70;25.35;;;-0.40;99.90;;;;;;5003090;28;20480;-73
2021/11/28 03:20:53;;;;;;;31.95;24.17;;;-0.40;99.90;;;;;;5002088;28;20081;-73
2021/11/28 03:23:21;;;;;;;29.77;23.88;;;-0.40;99.90;;;;;;5007451;28;20106;-73
2021/11/28 03:25:47;;;;;;;30.42;23.48;;;-0.30;99.90;;;;;;5008353;28;20065;-73
2021/11/28 03:28:19;;;;;;;34.63;25.35;;;-0.30;99.90;;;;;;5003966;28;20062;-74
2021/11/28 03:30:47;;;;;;;31.80;24.60;;;-0.30;99.90;;;;;;4998334;28;20037;-73
2021/11/28 03:33:14;;;;;;;29.67;23.33;;;-0.30;99.90;;;;;;5003889;28;20459;-73
2021/11/28 03:35:40;;;;;;;28.88;22.60;;;-0.30;99.90;;;;;;5000513;28;20025;-73
2021/11/28 03:38:06;;;;;;;47.67;29.23;;;-0.30;99.90;;;;;;5004797;28;20408;-74
2021/11/28 03:40:34;;;;;;;35.33;25.73;;;-0.20;99.90;;;;;;4997797;28;20084;-74
2021/11/28 03:43:00;;;;;;;36.42;25.90;;;-0.30;99.90;;;;;;5015295;28;20029;-72
2021/11/28 03:45:25;;;;;;;36.00;25.50;;;-0.30;99.90;;;;;;5014413;28;20022;-72
2021/11/28 03:47:51;;;;;;;35.15;25.42;;;-0.30;99.90;;;;;;5014661;28;20037;-72
2021/11/28 03:50:18;;;;;;;42.15;27.08;;;-0.40;99.90;;;;;;5001400;28;20392;-72
2021/11/28 03:52:44;;;;;;;30.55;22.80;;;-0.40;99.90;;;;;;5004225;28;20033;-72
2021/11/28 03:55:10;;;;;;;31.02;23.35;;;-0.40;99.90;;;;;;5008037;28;20030;-72
2021/11/28 03:57:36;;;;;;;29.58;22.10;;;-0.30;99.90;;;;;;5005166;28;20025;-72
2021/11/28 04:00:05;;;;;;;27.13;20.50;;;-0.30;99.90;;;;;;5011036;28;20022;-72
2021/11/28 04:02:31;;;;;;;28.23;21.77;;;-0.40;99.90;;;;;;5005612;28;20025;-71
2021/11/28 04:04:57;;;;;;;26.08;21.48;;;-0.50;99.90;;;;;;5001024;28;20026;-72
2021/11/28 04:07:22;;;;;;;27.77;22.27;;;-0.50;99.90;;;;;;5004309;28;20080;-72
2021/11/28 04:09:48;;;;;;;29.23;21.83;;;-0.40;99.90;;;;;;5011685;28;20022;-72
2021/11/28 04:12:13;;;;;;;25.85;21.05;;;-0.50;99.90;;;;;;5003961;28;20030;-72
2021/11/28 04:14:40;;;;;;;23.55;19.60;;;-0.40;99.90;;;;;;5011415;28;20037;-73
2021/11/28 04:17:06;;;;;;;23.30;19.17;;;-0.50;99.90;;;;;;5014071;28;20488;-73
2021/11/28 04:19:32;;;;;;;26.17;18.75;;;-0.50;99.90;;;;;;5014985;28;20118;-73
2021/11/28 04:21:57;;;;;;;22.75;17.10;;;-0.50;99.90;;;;;;5019990;28;20120;-73
2021/11/28 04:24:23;;;;;;;22.65;16.05;;;-0.50;99.90;;;;;;5011714;28;20037;-73
2021/11/28 04:26:48;;;;;;;29.02;19.38;;;-0.50;99.90;;;;;;5003594;28;20041;-73
2021/11/28 04:29:17;;;;;;;27.92;19.98;;;-0.40;99.90;;;;;;5010273;28;20488;-73
2021/11/28 04:31:42;;;;;;;22.33;17.65;;;-0.50;99.90;;;;;;5003263;28;20027;-72
2021/11/28 04:34:08;;;;;;;25.13;17.98;;;-0.40;99.90;;;;;;4998079;28;20034;-72
2021/11/28 04:36:33;;;;;;;22.42;17.85;;;-0.40;99.90;;;;;;5003538;28;20528;-73
2021/11/28 04:38:59;;;;;;;25.42;18.38;;;-0.40;99.90;;;;;;5011337;28;20365;-72
2021/11/28 04:41:24;;;;;;;31.35;20.58;;;-0.40;99.90;;;;;;5036304;28;20025;-73
2021/11/28 04:43:50;;;;;;;26.55;19.38;;;-0.40;99.90;;;;;;5008606;28;20065;-73
2021/11/28 04:46:15;;;;;;;25.80;19.45;;;-0.40;99.90;;;;;;4998852;28;20076;-73
2021/11/28 04:48:41;;;;;;;27.50;19.23;;;-0.50;99.90;;;;;;4996858;28;20042;-72
2021/11/28 04:51:06;;;;;;;25.90;19.02;;;-0.60;99.90;;;;;;4993949;28;20026;-72
2021/11/28 04:53:32;;;;;;;25.35;17.45;;;-0.60;99.90;;;;;;4997301;28;20080;-72
2021/11/28 04:55:58;;;;;;;21.75;17.75;;;-0.60;99.90;;;;;;5002040;28;20026;-72
2021/11/28 04:58:23;;;;;;;22.98;17.65;;;-0.50;99.90;;;;;;5010209;28;20045;-72
2021/11/28 05:00:49;;;;;;;24.58;17.75;;;-0.50;99.90;;;;;;5002231;28;20033;-73
2021/11/28 05:03:15;;;;;;;26.90;19.25;;;-0.50;99.90;;;;;;5006809;28;20042;-72
2021/11/28 05:05:40;;;;;;;20.05;16.38;;;-0.40;99.90;;;;;;5003725;28;20463;-73
2021/11/28 05:08:06;;;;;;;18.10;15.23;;;-0.40;99.90;;;;;;5000303;28;20053;-73
2021/11/28 05:10:32;;;;;;;20.98;16.58;;;-0.30;99.90;;;;;;5013109;28;20088;-72
2021/11/28 05:12:57;;;;;;;21.40;16.70;;;-0.20;99.90;;;;;;4998633;28;20079;-72
2021/11/28 05:15:23;;;;;;;26.13;18.90;;;-0.20;99.90;;;;;;5012773;28;20030;-72
2021/11/28 05:17:48;;;;;;;20.52;16.20;;;-0.20;99.90;;;;;;5013090;28;20419;-72
2021/11/28 05:20:14;;;;;;;21.25;15.80;;;-0.20;99.90;;;;;;5003344;28;20018;-72
2021/11/28 05:22:41;;;;;;;16.05;14.13;;;-0.20;99.90;;;;;;5006535;28;20389;-73
2021/11/28 05:25:07;;;;;;;17.70;13.73;;;-0.10;99.90;;;;;;5002938;28;20026;-71
2021/11/28 05:27:33;;;;;;;18.25;15.35;;;-0.10;99.90;;;;;;4998336;28;20522;-71
2021/11/28 05:29:59;;;;;;;29.38;21.92;;;0.00;99.90;;;;;;5001744;28;20113;-71
2021/11/28 05:32:24;;;;;;;31.23;24.50;;;-0.10;99.90;;;;;;5005899;28;20031;-72
2021/11/28 05:34:50;;;;;;;25.48;20.67;;;-0.20;99.90;;;;;;5002851;28;20033;-71
2021/11/28 05:37:17;;;;;;;24.95;20.40;;;-0.20;99.90;;;;;;4998608;28;20492;-72
2021/11/28 05:39:44;;;;;;;22.15;18.98;;;-0.30;99.90;;;;;;5012948;28;20546;-72
2021/11/28 05:42:09;;;;;;;24.88;19.45;;;-0.30;99.90;;;;;;4999637;28;20040;-72
2021/11/28 05:44:35;;;;;;;34.53;23.50;;;-0.20;99.90;;;;;;5002422;28;20595;-72
2021/11/28 05:47:01;;;;;;;34.25;24.70;;;-0.30;99.90;;;;;;5006156;28;20041;-72
2021/11/28 05:49:26;;;;;;;37.88;26.05;;;-0.30;99.90;;;;;;5002864;28;20021;-72
2021/11/28 05:51:53;;;;;;;37.67;25.63;;;-0.40;99.90;;;;;;5009048;28;20473;-72
2021/11/28 05:54:19;;;;;;;27.02;21.80;;;-0.30;99.90;;;;;;4992515;28;20027;-72
2021/11/28 05:56:44;;;;;;;30.25;23.77;;;-0.10;99.90;;;;;;4976798;28;20050;-72
2021/11/28 05:59:10;;;;;;;28.33;21.25;;;-0.20;99.90;;;;;;5002533;28;20050;-72
2021/11/28 06:01:36;;;;;;;33.25;24.42;;;-0.10;99.90;;;;;;4995941;28;20030;-72
2021/11/28 06:04:01;;;;;;;38.78;28.92;;;-0.20;99.90;;;;;;5002424;28;20463;-71
2021/11/28 06:06:28;;;;;;;34.72;29.13;;;-0.50;99.90;;;;;;5004780;28;20034;-72
2021/11/28 06:08:54;;;;;;;41.13;36.85;;;-0.40;99.90;;;;;;5001100;28;20400;-71
2021/11/28 06:11:19;;;;;;;34.55;28.25;;;-0.30;99.90;;;;;;4998826;28;20040;-71
2021/11/28 06:13:45;;;;;;;30.48;24.90;;;-0.20;99.90;;;;;;5001648;28;20026;-71
2021/11/28 06:16:10;;;;;;;35.00;24.50;;;-0.10;99.90;;;;;;5005595;28;20111;-73
2021/11/28 06:18:36;;;;;;;29.85;23.95;;;-0.10;99.90;;;;;;5001436;28;20034;-73
2021/11/28 06:21:01;;;;;;;28.65;23.30;;;-0.10;99.90;;;;;;5011992;28;20042;-72
2021/11/28 06:23:27;;;;;;;32.05;23.38;;;-0.10;99.90;;;;;;5012030;28;20026;-73
2021/11/28 06:25:53;;;;;;;25.02;21.40;;;0.00;99.90;;;;;;5010557;28;20030;-72
2021/11/28 06:28:18;;;;;;;31.73;24.75;;;0.00;99.90;;;;;;5010704;28;20108;-73
2021/11/28 06:30:44;;;;;;;29.30;21.88;;;0.00;99.90;;;;;;5010591;28;20041;-72
2021/11/28 06:33:10;;;;;;;26.38;19.60;;;0.00;99.90;;;;;;5011961;28;20026;-72
2021/11/28 06:35:35;;;;;;;32.45;28.85;;;-0.10;99.90;;;;;;5010259;28;20030;-72
2021/11/28 06:38:01;;;;;;;39.33;28.42;;;-0.10;99.90;;;;;;5003476;28;20465;-73
2021/11/28 06:40:27;;;;;;;37.80;27.55;;;-0.10;99.90;;;;;;5005553;28;20447;-73
2021/11/28 06:42:52;;;;;;;39.17;29.55;;;-0.40;99.90;;;;;;5002348;28;20022;-73
2021/11/28 06:45:18;;;;;;;34.92;29.17;;;-0.30;99.90;;;;;;5002520;28;20034;-73
2021/11/28 06:47:44;;;;;;;47.50;37.35;;;-0.20;99.90;;;;;;5016382;28;20052;-73
2021/11/28 06:50:10;;;;;;;35.22;28.23;;;-0.20;99.90;;;;;;5016732;28;20029;-73
2021/11/28 06:52:35;;;;;;;38.72;31.08;;;-0.10;99.90;;;;;;5007113;28;20492;-73
2021/11/28 06:55:01;;;;;;;41.08;35.40;;;-0.10;99.90;;;;;;5009237;28;20030;-73
2021/11/28 06:57:27;;;;;;;42.97;35.65;;;0.00;99.90;;;;;;5004729;28;20022;-73
2021/11/28 06:59:52;;;;;;;44.63;33.70;;;0.00;99.90;;;;;;4999739;28;20113;-73
2021/11/28 07:02:18;;;;;;;37.17;29.73;;;0.00;99.90;;;;;;4994799;28;20030;-73
2021/11/28 07:04:43;;;;;;;33.55;25.92;;;0.10;99.90;;;;;;4996152;28;20034;-73
2021/11/28 07:07:10;;;;;;;38.83;28.60;;;0.10;99.90;;;;;;5007252;28;20034;-73
2021/11/28 07:09:36;;;;;;;41.90;29.33;;;0.10;99.90;;;;;;5009519;28;20036;-73
2021/11/28 07:12:03;;;;;;;32.00;24.48;;;0.10;99.90;;;;;;5007151;28;20121;-73
2021/11/28 07:14:29;;;;;;;33.17;25.95;;;0.10;99.90;;;;;;5007539;28;20050;-73
2021/11/28 07:16:54;;;;;;;36.33;27.88;;;0.20;99.90;;;;;;4995916;28;20503;-73
2021/11/28 07:19:20;;;;;;;32.42;25.50;;;0.10;99.90;;;;;;5009026;28;20396;-73
2021/11/28 07:21:45;;;;;;;31.08;24.67;;;0.10;99.90;;;;;;5004077;28;20110;-73
2021/11/28 07:24:11;;;;;;;36.40;29.38;;;0.10;99.90;;;;;;5002028;28;20489;-73
2021/11/28 07:26:37;;;;;;;47.97;38.25;;;0.10;99.90;;;;;;5007324;28;20042;-72
2021/11/28 07:29:03;;;;;;;44.80;33.85;;;0.20;99.90;;;;;;5010214;28;20026;-73
2021/11/28 07:31:28;;;;;;;36.63;27.20;;;0.10;99.90;;;;;;5007536;28;20505;-73
2021/11/28 07:33:54;;;;;;;34.50;27.38;;;0.10;99.90;;;;;;5008563;28;20049;-73
2021/11/28 07:36:20;;;;;;;35.45;26.77;;;0.10;99.90;;;;;;5003452;28;20025;-73
2021/11/28 07:38:45;;;;;;;45.47;30.80;;;0.00;99.90;;;;;;5002686;28;20018;-73
2021/11/28 07:41:11;;;;;;;32.17;24.75;;;0.00;99.90;;;;;;5015284;28;20076;-73
2021/11/28 07:43:38;;;;;;;32.17;25.20;;;0.10;99.90;;;;;;5000543;28;20523;-73
2021/11/28 07:46:04;;;;;;;31.42;25.20;;;0.20;99.90;;;;;;5006005;28;20041;-74
2021/11/28 07:48:30;;;;;;;32.15;24.80;;;0.30;99.90;;;;;;5007798;28;20022;-73
2021/11/28 07:50:58;;;;;;;26.15;21.52;;;0.30;99.90;;;;;;5008934;28;20026;-73
2021/11/28 07:53:24;;;;;;;30.65;23.90;;;0.30;99.90;;;;;;5010665;28;20233;-73
2021/11/28 07:55:50;;;;;;;29.80;23.75;;;0.40;99.90;;;;;;5003421;28;20466;-73
2021/11/28 07:58:16;;;;;;;30.52;24.52;;;0.40;99.90;;;;;;5001768;28;20109;-73
2021/11/28 08:00:41;;;;;;;31.83;24.20;;;0.50;99.90;;;;;;5005559;28;20499;-73
2021/11/28 08:03:07;;;;;;;191.60;112.50;;;0.50;99.90;;;;;;5008518;28;20043;-72
2021/11/28 08:05:33;;;;;;;178.35;105.03;;;0.40;99.90;;;;;;5007389;28;20026;-72
2021/11/28 08:07:58;;;;;;;103.90;64.70;;;0.30;99.90;;;;;;5028359;28;20025;-72
2021/11/28 08:10:25;;;;;;;49.55;34.15;;;0.40;99.90;;;;;;5043579;28;20034;-72
2021/11/28 08:12:50;;;;;;;76.72;48.60;;;0.50;99.90;;;;;;5020075;28;20026;-71
2021/11/28 08:15:18;;;;;;;120.18;76.20;;;0.50;99.90;;;;;;5005142;28;20053;-73
2021/11/28 08:17:48;;;;;;;80.57;52.47;;;0.60;99.90;;;;;;5007811;28;20032;-73
2021/11/28 08:20:15;;;;;;;54.30;38.13;;;0.40;99.90;;;;;;5004379;28;20109;-72
2021/11/28 08:22:40;;;;;;;52.05;35.60;;;0.40;99.90;;;;;;5001073;28;20487;-72
2021/11/28 08:25:09;;;;;;;60.28;44.80;;;0.50;99.90;;;;;;5004187;28;20061;-73
2021/11/28 08:27:35;;;;;;;54.00;41.58;;;0.60;99.90;;;;;;4997931;28;20502;-72
2021/11/28 08:30:05;;;;;;;44.83;34.33;;;0.70;99.90;;;;;;5004083;28;20030;-73
2021/11/28 08:32:31;;;;;;;46.53;34.05;;;0.40;99.90;;;;;;5006178;28;20484;-72
2021/11/28 08:34:56;;;;;;;46.53;32.42;;;0.40;99.90;;;;;;4994215;28;20053;-73
2021/11/28 08:37:22;;;;;;;44.28;31.92;;;0.40;99.90;;;;;;5007477;28;20034;-73
2021/11/28 08:39:48;;;;;;;46.00;32.30;;;0.50;99.90;;;;;;5004908;28;20496;-72
2021/11/28 08:42:13;;;;;;;42.85;31.10;;;0.40;99.90;;;;;;5024808;28;20026;-72
2021/11/28 08:44:40;;;;;;;44.85;32.15;;;0.50;99.90;;;;;;5004849;28;20484;-73
2021/11/28 08:47:06;;;;;;;46.75;32.03;;;0.50;99.90;;;;;;5008242;28;20480;-72
2021/11/28 08:49:32;;;;;;;48.22;31.48;;;0.40;99.90;;;;;;5001759;28;20031;-73
2021/11/28 08:51:57;;;;;;;42.83;31.65;;;0.50;99.90;;;;;;5007351;28;20057;-72
2021/11/28 08:54:23;;;;;;;49.35;35.42;;;0.60;99.90;;;;;;5008788;28;20035;-73
2021/11/28 08:56:51;;;;;;;40.92;32.17;;;0.70;99.90;;;;;;5010996;28;20025;-72
2021/11/28 08:59:18;;;;;;;52.35;41.33;;;0.70;99.90;;;;;;5001546;28;20559;-72
2021/11/28 09:01:44;;;;;;;39.72;35.35;;;0.80;99.90;;;;;;5011244;28;20445;-72
2021/11/28 09:04:10;;;;;;;44.13;37.42;;;0.80;99.90;;;;;;5002123;28;20037;-72
2021/11/28 09:06:35;;;;;;;34.22;28.65;;;1.00;99.90;;;;;;5009751;28;20104;-72
2021/11/28 09:09:02;;;;;;;34.50;27.25;;;1.10;99.90;;;;;;5013345;28;20113;-72
2021/11/28 09:11:28;;;;;;;29.35;24.77;;;1.10;99.90;;;;;;5013160;28;20097;-72
2021/11/28 09:13:54;;;;;;;32.63;25.45;;;1.20;99.90;;;;;;5012994;28;20026;-72
2021/11/28 09:16:19;;;;;;;29.17;24.70;;;1.20;99.90;;;;;;5015615;28;20053;-72
2021/11/28 09:18:59;;;;;;;29.50;21.60;;;1.20;99.90;;;;;;4998271;28;20033;-72
2021/11/28 09:25:05;;;;;;;27.17;22.63;;;1.30;99.90;;;;;;4987191;28;20548;-72
2021/11/28 09:27:30;;;;;;;30.67;25.20;;;1.40;99.90;;;;;;5007404;28;20067;-72
2021/11/28 09:29:56;;;;;;;27.92;23.80;;;1.40;99.90;;;;;;5010916;28;20464;-72
2021/11/28 09:32:22;;;;;;;31.35;26.00;;;1.50;99.90;;;;;;5012739;28;20037;-72
2021/11/28 09:34:48;;;;;;;41.03;36.67;;;1.50;99.90;;;;;;5010999;28;20112;-72
2021/11/28 09:37:14;;;;;;;37.83;32.63;;;1.50;99.90;;;;;;5011451;28;20026;-72
2021/11/28 09:39:44;;;;;;;29.17;24.92;;;1.50;99.90;;;;;;5012307;28;20105;-72
2021/11/28 09:42:11;;;;;;;32.38;28.10;;;1.60;99.90;;;;;;5009753;28;20025;-73
2021/11/28 09:44:40;;;;;;;30.35;24.67;;;1.60;99.90;;;;;;5003220;28;20033;-73
2021/11/28 09:47:09;;;;;;;31.23;25.45;;;1.60;99.90;;;;;;4998155;28;20120;-73
2021/11/28 09:49:36;;;;;;;27.25;22.85;;;1.60;99.90;;;;;;5011230;28;20416;-73
2021/11/28 09:52:05;;;;;;;27.30;24.08;;;1.40;99.90;;;;;;4999602;28;20034;-73
2021/11/28 09:54:35;;;;;;;28.75;23.80;;;1.60;99.90;;;;;;4999615;28;20114;-73
2021/11/28 09:57:01;;;;;;;26.27;23.23;;;1.60;99.90;;;;;;5006164;28;20052;-73
2021/11/28 09:59:27;;;;;;;26.63;22.45;;;1.60;99.90;;;;;;5005086;28;20022;-73
2021/11/28 10:01:55;;;;;;;24.90;22.20;;;1.80;99.90;;;;;;4999362;28;20026;-73
2021/11/28 10:04:21;;;;;;;24.60;21.60;;;1.90;99.90;;;;;;4999666;28;20404;-72
2021/11/28 10:06:48;;;;;;;24.83;21.05;;;1.80;99.90;;;;;;5005867;28;20026;-72
2021/11/28 10:09:14;;;;;;;26.80;21.33;;;1.90;99.90;;;;;;5005275;28;20033;-73
2021/11/28 10:11:39;;;;;;;28.02;24.48;;;1.90;99.90;;;;;;4997768;28;20022;-72
2021/11/28 10:14:10;;;;;;;25.50;22.45;;;1.90;99.90;;;;;;4999818;28;20087;-73
2021/11/28 10:16:36;;;;;;;29.05;24.27;;;1.90;99.90;;;;;;4998728;28;20026;-74
2021/11/28 10:19:05;;;;;;;25.85;21.77;;;2.00;99.90;;;;;;4998962;28;20030;-74
2021/11/28 10:21:33;;;;;;;24.50;21.10;;;1.90;99.90;;;;;;4999513;28;20092;-74
2021/11/28 10:24:07;;;;;;;25.60;22.92;;;2.00;99.90;;;;;;5014158;28;20400;-74
2021/11/28 10:26:50;;;;;;;31.40;27.33;;;2.10;99.90;;;;;;5003764;28;20040;-74
2021/11/28 10:29:16;;;;;;;29.02;22.25;;;2.10;99.90;;;;;;5004870;28;20030;-74
2021/11/28 10:31:46;;;;;;;24.88;21.35;;;2.10;99.90;;;;;;5003313;28;20037;-74
2021/11/28 10:34:28;;;;;;;27.33;22.35;;;2.20;99.90;;;;;;4997271;28;20099;-73
2021/11/28 10:37:15;;;;;;;28.33;22.45;;;2.20;99.90;;;;;;4999104;28;20042;-73
2021/11/28 10:39:44;;;;;;;25.45;22.20;;;2.20;99.90;;;;;;4992525;28;20554;-74
2021/11/28 10:42:16;;;;;;;29.08;23.95;;;2.10;99.90;;;;;;5024223;28;20093;-73
2021/11/28 10:44:58;;;;;;;28.20;24.27;;;2.20;99.90;;;;;;4999649;28;20477;-74
2021/11/28 10:47:39;;;;;;;26.30;23.10;;;2.10;99.90;;;;;;4999109;28;20059;-74
2021/11/28 10:50:33;;;;;;;25.00;22.10;;;2.10;99.90;;;;;;4998860;28;20589;-74
2021/11/28 10:53:21;;;;;;;25.60;20.40;;;2.10;99.90;;;;;;4997524;28;20042;-74
2021/11/28 10:55:58;;;;;;;24.30;19.95;;;2.10;99.90;;;;;;5000693;28;20384;-74
2021/11/28 10:58:26;;;;;;;22.88;18.83;;;1.80;99.90;;;;;;4999094;28;20030;-74
2021/11/28 11:00:52;;;;;;;23.30;18.70;;;1.60;99.90;;;;;;5001473;28;20022;-73
2021/11/28 11:03:20;;;;;;;23.27;19.70;;;1.50;99.90;;;;;;5005482;28;20029;-74
2021/11/28 11:05:49;;;;;;;27.33;20.48;;;1.60;99.90;;;;;;5002983;28;20040;-73
2021/11/28 11:08:16;;;;;;;25.83;22.15;;;1.50;99.90;;;;;;4998582;28;20037;-74
2021/11/28 11:10:43;;;;;;;26.70;21.10;;;1.40;99.90;;;;;;4999765;28;20037;-74
2021/11/28 11:13:19;;;;;;;29.20;21.65;;;1.40;99.90;;;;;;4995512;28;20029;-74
2021/11/28 11:15:47;;;;;;;30.27;23.75;;;1.40;99.90;;;;;;4999346;28;20057;-74
2021/11/28 11:18:16;;;;;;;31.25;25.38;;;1.50;99.90;;;;;;5005296;28;20434;-74
2021/11/28 11:20:44;;;;;;;30.75;25.25;;;1.50;99.90;;;;;;5005033;28;20043;-74
2021/11/28 11:23:33;;;;;;;40.50;32.95;;;1.50;99.90;;;;;;4998665;28;20057;-74
2021/11/28 11:26:21;;;;;;;38.30;30.35;;;1.50;99.90;;;;;;5013303;28;20040;-73
2021/11/28 11:29:06;;;;;;;32.22;28.77;;;1.40;99.90;;;;;;5000171;28;20030;-74
2021/11/28 11:31:31;;;;;;;37.08;30.35;;;1.60;99.90;;;;;;4999637;28;20026;-73
2021/11/28 11:33:57;;;;;;;37.80;30.60;;;1.60;99.90;;;;;;5012971;28;20018;-73
2021/11/28 11:36:42;;;;;;;37.17;29.98;;;1.50;99.90;;;;;;5001711;28;20072;-74
2021/11/28 11:39:08;;;;;;;37.93;31.50;;;1.70;99.90;;;;;;5010730;28;20065;-74
2021/11/28 11:41:33;;;;;;;33.08;27.70;;;1.70;99.90;;;;;;5008347;28;20504;-73
2021/11/28 11:43:59;;;;;;;35.70;29.30;;;1.60;99.90;;;;;;5006181;28;20389;-73
2021/11/28 11:46:25;;;;;;;32.10;27.30;;;1.70;99.90;;;;;;5006300;28;20033;-73
2021/11/28 11:48:50;;;;;;;32.88;28.25;;;1.50;99.90;;;;;;5005562;28;20061;-73
2021/11/28 11:51:16;;;;;;;34.33;29.13;;;1.70;99.90;;;;;;5011123;28;20027;-74
2021/11/28 11:53:41;;;;;;;33.70;26.17;;;1.90;99.90;;;;;;5016133;28;20556;-73
2021/11/28 11:56:15;;;;;;;32.88;26.80;;;1.90;99.90;;;;;;5017758;28;20542;-74
2021/11/28 11:58:54;;;;;;;34.75;26.55;;;1.80;99.90;;;;;;5019608;28;20030;-73
2021/11/28 12:01:27;;;;;;;32.10;25.52;;;1.70;99.90;;;;;;5005670;28;20057;-73
2021/11/28 12:03:54;;;;;;;30.25;25.25;;;1.60;99.90;;;;;;5010473;28;20029;-73
2021/11/28 12:06:46;;;;;;;30.48;25.33;;;1.60;99.90;;;;;;5006572;28;20113;-74
2021/11/28 12:09:26;;;;;;;35.10;26.85;;;1.60;99.90;;;;;;5014811;28;20495;-73
2021/11/28 12:12:05;;;;;;;35.10;26.13;;;1.90;99.90;;;;;;5012910;28;20046;-73
2021/11/28 12:14:30;;;;;;;36.60;27.98;;;1.90;99.90;;;;;;5007217;28;20021;-73
2021/11/28 12:16:56;;;;;;;30.08;25.40;;;1.80;99.90;;;;;;5011805;28;20398;-73
2021/11/28 12:19:41;;;;;;;31.67;26.00;;;1.70;99.90;;;;;;5012728;28;20026;-73
2021/11/28 12:22:27;;;;;;;34.83;26.88;;;1.80;99.90;;;;;;5014181;28;20030;-73
2021/11/28 12:24:53;;;;;;;33.78;28.55;;;1.90;99.90;;;;;;5003637;28;20374;-73
2021/11/28 12:27:36;;;;;;;31.70;26.55;;;2.00;99.90;;;;;;5006755;28;20110;-73
2021/11/28 12:30:32;;;;;;;34.92;26.65;;;1.90;99.90;;;;;;5005502;28;20025;-73
2021/11/28 12:32:57;;;;;;;30.60;26.60;;;1.90;99.90;;;;;;5012023;28;20428;-72
2021/11/28 12:35:37;;;;;;;31.10;25.30;;;1.90;99.90;;;;;;5010997;28;20115;-72
2021/11/28 12:38:02;;;;;;;36.75;28.95;;;2.00;99.90;;;;;;5021794;28;20117;-73
2021/11/28 12:40:33;;;;;;;34.97;26.83;;;2.00;99.90;;;;;;5009070;28;20105;-73
2021/11/28 12:43:17;;;;;;;35.13;30.35;;;2.10;99.90;;;;;;4994168;28;20108;-73
2021/11/28 12:45:43;;;;;;;26.67;23.77;;;2.00;99.90;;;;;;4994304;28;20026;-72